createdAt,value
2023-01-20T00:00:12.036Z,1006.00
2023-01-20T00:01:12.263Z,868.00
2023-01-20T00:02:12.550Z,789.00
2023-01-20T00:03:12.784Z,621.00
2023-01-20T00:04:13.021Z,690.00
2023-01-20T00:05:13.488Z,660.00
2023-01-20T00:06:13.460Z,629.00
2023-01-20T00:07:13.688Z,595.00
2023-01-20T00:08:14.009Z,567.00
2023-01-20T00:09:14.231Z,478.00
2023-01-20T00:10:14.479Z,525.00
2023-01-20T00:11:14.724Z,621.00
2023-01-20T00:12:14.959Z,609.00
2023-01-20T00:13:15.189Z,613.00
2023-01-20T00:14:15.446Z,626.00
2023-01-20T00:15:15.898Z,654.00
2023-01-20T00:16:15.902Z,710.00
2023-01-20T00:17:16.098Z,633.00
2023-01-20T00:18:16.370Z,617.00
2023-01-20T00:19:16.625Z,609.00
2023-01-20T00:20:16.883Z,631.00
2023-01-20T00:21:17.048Z,662.00
2023-01-20T00:55:25.555Z,865.00
2023-01-20T00:59:26.617Z,712.00
2023-01-20T01:00:26.927Z,688.00
2023-01-20T01:01:27.238Z,717.00
2023-01-20T01:02:27.445Z,640.00
2023-01-20T01:03:27.685Z,661.00
2023-01-20T01:04:27.930Z,697.00
2023-01-20T01:05:28.184Z,749.00
2023-01-20T01:06:28.444Z,693.00
2023-01-20T01:07:28.712Z,621.00
2023-01-20T01:08:28.991Z,613.00
2023-01-20T01:10:29.480Z,689.00
2023-01-20T01:11:29.759Z,695.00
2023-01-20T01:12:30.029Z,738.00
2023-01-20T01:13:30.299Z,751.00
2023-01-20T01:14:30.566Z,691.00
2023-01-20T01:15:30.725Z,711.00
2023-01-20T01:16:31.068Z,647.00
2023-01-20T01:35:35.584Z,574.00
2023-01-20T01:36:35.873Z,607.00
2023-01-20T01:37:36.039Z,636.00
2023-01-20T01:38:36.296Z,689.00
2023-01-20T01:39:36.577Z,703.00
2023-01-20T01:40:36.734Z,632.00
2023-01-20T01:41:37.061Z,728.00
2023-01-20T01:42:37.221Z,865.00
2023-01-20T01:43:37.507Z,996.00
2023-01-20T01:44:37.666Z,1035.00
2023-01-20T01:45:37.975Z,1018.00
2023-01-20T01:46:38.228Z,1132.00
2023-01-20T01:47:38.477Z,1139.00
2023-01-20T01:48:38.747Z,1214.00
2023-01-20T01:49:39.018Z,1235.00
2023-01-20T01:50:39.184Z,1250.00
2023-01-20T01:51:39.474Z,1063.00
2023-01-20T02:17:45.631Z,1052.00
2023-01-20T02:18:45.912Z,1152.00
2023-01-20T02:19:46.092Z,1143.00
2023-01-20T02:20:46.369Z,1151.00
2023-01-20T02:21:46.649Z,968.00
2023-01-20T02:22:46.791Z,1022.00
2023-01-20T02:23:47.081Z,1257.00
2023-01-20T02:24:47.358Z,1269.00
2023-01-20T02:25:47.609Z,1293.00
2023-01-20T02:26:47.745Z,1336.00
2023-01-20T02:27:48.059Z,1340.00
2023-01-20T02:28:48.284Z,1324.00
2023-01-20T02:29:48.501Z,1318.00
2023-01-20T02:30:48.647Z,1285.00
2023-01-20T02:31:48.906Z,1202.00
2023-01-20T02:32:49.101Z,1081.00
2023-01-20T03:02:55.675Z,1611.00
2023-01-20T03:03:55.884Z,1400.00
2023-01-20T03:04:56.107Z,1300.00
2023-01-20T03:05:56.350Z,1410.00
2023-01-20T03:06:56.567Z,1441.00
2023-01-20T03:07:56.785Z,1375.00
2023-01-20T03:08:57.023Z,1286.00
2023-01-20T03:09:57.236Z,1331.00
2023-01-20T03:10:57.476Z,1336.00
2023-01-20T03:47:05.582Z,1248.00
2023-01-20T03:50:06.300Z,1319.00
2023-01-20T03:51:06.468Z,1283.00
2023-01-20T03:52:06.684Z,1245.00
2023-01-20T03:53:06.893Z,1272.00
2023-01-20T03:54:07.122Z,1341.00
2023-01-20T03:55:07.329Z,1399.00
2023-01-20T03:56:07.535Z,1351.00
2023-01-20T03:57:07.732Z,1308.00
2023-01-20T03:58:07.932Z,1339.00
2023-01-20T03:59:08.152Z,1524.00
2023-01-20T04:00:08.352Z,1481.00
2023-01-20T04:01:17.580Z,1477.00
2023-01-20T04:02:09.500Z,1424.00
2023-01-20T04:03:08.311Z,1319.00
2023-01-20T04:04:08.179Z,1164.00
2023-01-20T04:05:08.079Z,1126.00
2023-01-20T04:06:08.042Z,1100.00
2023-01-20T04:07:07.846Z,1064.00
2023-01-20T04:08:07.724Z,1123.00
2023-01-20T04:09:07.622Z,1063.00
2023-01-20T04:10:07.479Z,1186.00
2023-01-20T04:11:07.523Z,1310.00
2023-01-20T04:12:07.669Z,1378.00
2023-01-20T04:13:07.950Z,1339.00
2023-01-20T04:14:08.150Z,1402.00
2023-01-20T04:15:08.359Z,1519.00
2023-01-20T04:16:08.587Z,1360.00
2023-01-20T04:17:08.793Z,1450.00
2023-01-20T04:18:09.006Z,1490.00
2023-01-20T04:51:17.065Z,1133.00
2023-01-20T04:52:17.418Z,1176.00
2023-01-20T04:53:17.660Z,1185.00
2023-01-20T04:54:17.867Z,1084.00
2023-01-20T04:55:18.201Z,1057.00
2023-01-20T04:56:18.421Z,943.00
2023-01-20T05:23:25.544Z,971.00
2023-01-20T05:24:25.773Z,1087.00
2023-01-20T05:25:26.008Z,1249.00
2023-01-20T05:26:26.358Z,1322.00
2023-01-20T05:27:26.553Z,1403.00
2023-01-20T05:28:26.788Z,1475.00
2023-01-20T05:29:27.010Z,1602.00
2023-01-20T05:30:27.379Z,1514.00
2023-01-20T05:31:27.592Z,1667.00
2023-01-20T05:32:27.782Z,1906.00
2023-01-20T05:33:28.027Z,1862.00
2023-01-20T06:06:35.674Z,1634.00
2023-01-20T06:07:35.892Z,1703.00
2023-01-20T06:51:45.668Z,1923.00
2023-01-20T06:52:45.860Z,1756.00
2023-01-20T06:53:46.118Z,1691.00
2023-01-20T06:54:46.444Z,1685.00
2023-01-20T06:55:46.626Z,1555.00
2023-01-20T06:56:46.906Z,1556.00
2023-01-20T06:57:47.112Z,1647.00
2023-01-20T07:26:56.634Z,766.00
2023-01-20T08:15:55.701Z,787.00
2023-01-20T08:16:55.982Z,731.00
2023-01-20T08:17:56.179Z,911.00
2023-01-20T08:18:56.420Z,1052.00
2023-01-20T08:19:56.623Z,802.00
2023-01-20T08:20:56.853Z,823.00
2023-01-20T08:21:57.099Z,725.00
2023-01-20T08:22:57.329Z,756.00
2023-01-20T08:23:57.591Z,639.00
2023-01-20T08:24:57.872Z,616.00
2023-01-20T08:25:57.992Z,690.00
2023-01-20T08:26:58.258Z,589.00
2023-01-20T08:27:58.516Z,640.00
2023-01-20T08:28:58.757Z,659.00
2023-01-20T08:29:59.014Z,668.00
2023-01-20T08:30:59.348Z,1005.00
2023-01-20T08:31:59.430Z,823.00
2023-01-20T08:32:59.660Z,844.00
2023-01-20T08:33:59.887Z,605.00
2023-01-20T08:35:00.121Z,579.00
2023-01-20T08:36:00.363Z,567.00
2023-01-20T08:37:00.621Z,586.00
2023-01-20T08:38:00.754Z,621.00
2023-01-20T08:39:01.626Z,546.00
2023-01-20T08:40:00.965Z,503.00
2023-01-20T08:41:00.908Z,508.00
2023-01-20T08:42:00.838Z,500.00
2023-01-20T08:43:01.005Z,505.00
2023-01-20T08:44:01.281Z,563.00
2023-01-20T08:45:01.502Z,582.00
2023-01-20T08:46:01.764Z,539.00
2023-01-20T09:01:05.595Z,514.00
2023-01-20T09:02:05.857Z,533.00
2023-01-20T09:03:06.107Z,512.00
2023-01-20T09:04:07.398Z,531.00
2023-01-20T09:05:06.260Z,796.00
2023-01-20T09:06:06.233Z,636.00
2023-01-20T09:07:06.150Z,601.00
2023-01-20T09:08:06.302Z,907.00
2023-01-20T09:09:06.490Z,731.00
2023-01-20T09:10:06.794Z,624.00
2023-01-20T09:11:07.085Z,858.00
2023-01-20T09:12:07.296Z,1260.00
2023-01-20T09:13:07.621Z,1147.00
2023-01-20T09:14:07.816Z,686.00
2023-01-20T09:15:08.157Z,792.00
2023-01-20T09:16:09.146Z,682.00
2023-01-20T09:17:08.256Z,722.00
2023-01-20T09:18:08.138Z,645.00
2023-01-20T09:19:08.144Z,795.00
2023-01-20T09:20:08.363Z,1036.00
2023-01-20T09:21:08.645Z,1270.00
2023-01-20T09:22:08.858Z,1458.00
2023-01-20T09:23:09.079Z,1109.00
2023-01-20T09:24:09.288Z,873.00
2023-01-20T09:25:09.513Z,965.00
2023-01-20T09:26:10.021Z,991.00
2023-01-20T09:27:10.084Z,910.00
2023-01-20T09:28:10.321Z,931.00
2023-01-20T09:29:10.537Z,1006.00
2023-01-20T09:30:10.824Z,621.00
2023-01-20T09:31:11.167Z,588.00
2023-01-20T09:32:11.385Z,765.00
2023-01-20T09:33:11.616Z,1191.00
2023-01-20T09:34:13.864Z,1092.00
2023-01-20T09:35:11.722Z,1359.00
2023-01-20T09:36:11.592Z,1539.00
2023-01-20T09:37:11.475Z,1801.00
2023-01-20T09:38:11.340Z,1574.00
2023-01-20T09:39:11.212Z,1698.00
2023-01-20T09:40:11.089Z,1657.00
2023-01-20T09:41:10.969Z,1504.00
2023-01-20T09:42:10.828Z,1252.00
2023-01-20T09:43:10.693Z,1109.00
2023-01-20T09:44:10.913Z,1010.00
2023-01-20T09:45:11.181Z,913.00
2023-01-20T09:46:11.492Z,1008.00
2023-01-20T09:47:11.708Z,1433.00
2023-01-20T09:48:11.960Z,1584.00
2023-01-20T09:49:12.249Z,1413.00
2023-01-20T09:50:12.524Z,1438.00
2023-01-20T09:51:12.729Z,1440.00
2023-01-20T09:52:12.967Z,1449.00
2023-01-20T09:53:13.234Z,1849.00
2023-01-20T09:54:13.505Z,1727.00
2023-01-20T09:55:13.691Z,1856.00
2023-01-20T10:00:15.116Z,1489.00
2023-01-20T10:01:15.225Z,1523.00
2023-01-20T10:02:15.353Z,1820.00
2023-01-20T10:03:15.603Z,1803.00
2023-01-20T10:04:15.810Z,1587.00
2023-01-20T10:05:16.149Z,1619.00
2023-01-20T10:06:16.398Z,1506.00
2023-01-20T10:07:16.528Z,1515.00
2023-01-20T10:08:16.801Z,1675.00
2023-01-20T10:09:17.041Z,1756.00
2023-01-20T10:10:17.628Z,1640.00
2023-01-20T10:11:17.590Z,1564.00
2023-01-20T10:12:17.825Z,1619.00
2023-01-20T10:13:18.026Z,1562.00
2023-01-20T10:14:18.258Z,1476.00
2023-01-20T10:15:18.578Z,1334.00
2023-01-20T10:16:18.845Z,1341.00
2023-01-20T10:17:19.021Z,992.00
2023-01-20T10:18:19.236Z,869.00
2023-01-20T10:19:19.511Z,842.00
2023-01-20T10:20:19.802Z,866.00
2023-01-20T10:21:19.955Z,944.00
2023-01-20T10:22:20.130Z,969.00
2023-01-20T10:23:20.375Z,961.00
2023-01-20T10:24:20.608Z,1169.00
2023-01-20T10:25:20.879Z,987.00
2023-01-20T10:26:21.093Z,910.00
2023-01-20T10:27:21.328Z,1130.00
2023-01-20T10:28:21.569Z,1448.00
2023-01-20T10:29:21.890Z,2400.00
2023-01-20T10:30:22.190Z,1984.00
2023-01-20T10:31:22.482Z,1985.00
2023-01-20T10:32:22.568Z,1894.00
2023-01-20T10:33:22.807Z,1826.00
2023-01-20T10:34:23.068Z,1551.00
2023-01-20T10:35:23.349Z,1812.00
2023-01-20T10:37:23.856Z,1517.00
2023-01-20T10:45:25.749Z,1044.00
2023-01-20T10:46:26.055Z,915.00
2023-01-20T10:47:26.136Z,839.00
2023-01-20T10:48:26.368Z,966.00
2023-01-20T10:49:26.579Z,1348.00
2023-01-20T10:50:26.938Z,1542.00
2023-01-20T10:51:27.100Z,1129.00
2023-01-20T10:52:27.349Z,1203.00
2023-01-20T10:53:27.600Z,1373.00
2023-01-20T10:54:27.816Z,1416.00
2023-01-20T10:55:28.088Z,1566.00
2023-01-20T10:56:28.331Z,1461.00
2023-01-20T10:57:28.564Z,1360.00
2023-01-20T10:58:28.828Z,1383.00
2023-01-20T10:59:29.103Z,1549.00
2023-01-20T11:00:29.308Z,1364.00
2023-01-20T11:01:29.518Z,1411.00
2023-01-20T11:02:29.907Z,1358.00
2023-01-20T11:03:30.022Z,1228.00
2023-01-20T11:04:30.273Z,1298.00
2023-01-20T11:05:30.615Z,787.00
2023-01-20T11:06:30.829Z,822.00
2023-01-20T11:07:31.031Z,1136.00
2023-01-20T11:08:31.295Z,1253.00
2023-01-20T11:09:31.534Z,1295.00
2023-01-20T11:10:31.785Z,1319.00
2023-01-20T11:11:32.050Z,1396.00
2023-01-20T11:25:35.645Z,1110.00
2023-01-20T11:26:35.922Z,1026.00
2023-01-20T11:27:36.202Z,1116.00
2023-01-20T11:28:36.464Z,958.00
2023-01-20T11:29:36.682Z,1047.00
2023-01-20T11:30:36.974Z,952.00
2023-01-20T11:31:37.283Z,882.00
2023-01-20T11:32:37.483Z,621.00
2023-01-20T11:33:37.757Z,761.00
2023-01-20T11:34:38.036Z,1029.00
2023-01-20T11:35:38.223Z,1028.00
2023-01-20T11:36:38.495Z,959.00
2023-01-20T11:37:38.752Z,653.00
2023-01-20T11:38:39.121Z,871.00
2023-01-20T11:40:39.591Z,951.00
2023-01-20T12:03:45.522Z,897.00
2023-01-20T12:04:45.788Z,601.00
2023-01-20T12:05:46.078Z,614.00
2023-01-20T12:06:46.289Z,636.00
2023-01-20T12:07:46.610Z,663.00
2023-01-20T12:08:46.839Z,601.00
2023-01-20T12:09:46.986Z,969.00
2023-01-20T12:10:47.240Z,1341.00
2023-01-20T12:11:47.556Z,959.00
2023-01-20T12:12:47.738Z,718.00
2023-01-20T12:13:48.002Z,625.00
2023-01-20T12:14:48.253Z,572.00
2023-01-20T12:48:55.658Z,781.00
2023-01-20T12:49:55.884Z,783.00
2023-01-20T12:50:56.162Z,681.00
2023-01-20T12:51:56.368Z,831.00
2023-01-20T12:52:56.631Z,1295.00
2023-01-20T12:53:56.877Z,1402.00
2023-01-20T12:54:57.117Z,1311.00
2023-01-20T12:55:57.335Z,1404.00
2023-01-20T12:56:57.565Z,1262.00
2023-01-20T12:57:57.862Z,1400.00
2023-01-20T12:58:58.081Z,1528.00
2023-01-20T12:59:58.314Z,1467.00
2023-01-20T13:00:58.641Z,1637.00
2023-01-20T13:01:58.799Z,1790.00
2023-01-20T13:02:59.071Z,1884.00
2023-01-20T13:03:59.255Z,1852.00
2023-01-20T13:04:59.483Z,1731.00
2023-01-20T13:05:59.647Z,1391.00
2023-01-20T13:06:59.939Z,1613.00
2023-01-20T13:08:00.183Z,1645.00
2023-01-20T13:09:00.459Z,1580.00
2023-01-20T13:10:00.685Z,1811.00
2023-01-20T13:11:00.927Z,1547.00
2023-01-20T13:12:01.176Z,1510.00
2023-01-20T13:13:01.394Z,1281.00
2023-01-20T13:14:01.685Z,1314.00
2023-01-20T13:15:01.910Z,1202.00
2023-01-20T13:16:02.160Z,1354.00
2023-01-20T13:17:02.470Z,1512.00
2023-01-20T13:18:02.676Z,1557.00
2023-01-20T13:19:02.914Z,1619.00
2023-01-20T13:20:03.170Z,1633.00
2023-01-20T13:21:03.451Z,1731.00
2023-01-20T13:22:08.100Z,1762.00
2023-01-20T13:23:03.517Z,1765.00
2023-01-20T13:24:03.338Z,1781.00
2023-01-20T13:25:03.447Z,1818.00
2023-01-20T13:26:03.296Z,1766.00
2023-01-20T13:27:03.129Z,1767.00
2023-01-20T13:28:02.951Z,1792.00
2023-01-20T13:29:02.779Z,1748.00
2023-01-20T13:30:02.615Z,1713.00
2023-01-20T13:31:02.509Z,1978.00
2023-01-20T13:32:02.322Z,1778.00
2023-01-20T13:33:02.108Z,1716.00
2023-01-20T13:34:01.943Z,1785.00
2023-01-20T13:35:01.778Z,1866.00
2023-01-20T13:36:01.630Z,1934.00
2023-01-20T13:37:01.446Z,1943.00
2023-01-20T13:38:01.318Z,1921.00
2023-01-20T13:39:01.116Z,1803.00
2023-01-20T13:40:01.260Z,1972.00
2023-01-20T13:41:01.585Z,1923.00
2023-01-20T13:42:01.755Z,1750.00
2023-01-20T13:43:02.035Z,1784.00
2023-01-20T13:44:02.312Z,1701.00
2023-01-20T13:57:07.613Z,1865.00
2023-01-20T14:26:05.700Z,1687.00
2023-01-20T14:27:05.979Z,1582.00
2023-01-20T14:28:06.229Z,1614.00
2023-01-20T14:29:06.483Z,1934.00
2023-01-20T14:30:06.759Z,1776.00
2023-01-20T14:31:07.073Z,1624.00
2023-01-20T15:05:15.802Z,1510.00
2023-01-20T15:06:15.946Z,1684.00
2023-01-20T15:15:18.006Z,1753.00
2023-01-20T15:16:18.304Z,2018.00
2023-01-20T15:17:18.471Z,1894.00
2023-01-20T15:18:18.715Z,1960.00
2023-01-20T15:19:19.002Z,1880.00
2023-01-20T15:20:19.236Z,1972.00
2023-01-20T15:21:19.475Z,1845.00
2023-01-20T15:22:19.695Z,1928.00
2023-01-20T15:23:19.998Z,1888.00
2023-01-20T15:24:20.174Z,2007.00
2023-01-20T15:25:20.395Z,2023.00
2023-01-20T15:26:20.641Z,2000.00
2023-01-20T15:27:20.877Z,1841.00
2023-01-20T15:28:21.113Z,1856.00
2023-01-20T15:29:21.292Z,1901.00
2023-01-20T15:30:21.706Z,1849.00
2023-01-20T15:31:21.900Z,1763.00
2023-01-20T15:32:22.051Z,1777.00
2023-01-20T15:33:22.282Z,1969.00
2023-01-20T15:34:22.535Z,2147.00
2023-01-20T15:47:25.611Z,2102.00
2023-01-20T15:48:25.788Z,1901.00
2023-01-20T15:49:26.069Z,2060.00
2023-01-20T15:50:26.222Z,2022.00
2023-01-20T15:51:26.457Z,1761.00
2023-01-20T15:52:26.684Z,1652.00
2023-01-20T15:53:26.908Z,1768.00
2023-01-20T16:28:35.601Z,1532.00
2023-01-20T16:31:36.415Z,1868.00
2023-01-20T16:32:36.574Z,1942.00
2023-01-20T16:33:36.779Z,1829.00
2023-01-20T16:34:37.048Z,2090.00
2023-01-20T16:35:37.248Z,1997.00
2023-01-20T16:36:37.521Z,1838.00
2023-01-20T16:37:37.725Z,1813.00
2023-01-20T16:38:37.991Z,2058.00
2023-01-20T16:39:38.180Z,2009.00
2023-01-20T16:40:38.434Z,1955.00
2023-01-20T16:41:38.689Z,1926.00
2023-01-20T16:42:38.961Z,1836.00
2023-01-20T16:43:39.163Z,1777.00
2023-01-20T16:44:39.379Z,1475.00
2023-01-20T16:45:39.749Z,1515.00
2023-01-20T16:46:39.878Z,1401.00
2023-01-20T16:47:40.090Z,1531.00
2023-01-20T16:48:40.305Z,1510.00
2023-01-20T16:49:40.586Z,1629.00
2023-01-20T16:50:40.861Z,1505.00
2023-01-20T16:51:41.038Z,1387.00
2023-01-20T16:52:41.301Z,1656.00
2023-01-20T16:53:41.520Z,1737.00
2023-01-20T16:54:41.796Z,1704.00
2023-01-20T16:55:42.065Z,1641.00
2023-01-20T16:56:42.291Z,1486.00
2023-01-20T16:57:42.477Z,1570.00
2023-01-20T16:58:42.763Z,1610.00
2023-01-20T16:59:43.026Z,1578.00
2023-01-20T17:00:43.315Z,1602.00
2023-01-20T17:01:43.525Z,1707.00
2023-01-20T17:02:43.693Z,1776.00
2023-01-20T17:03:43.973Z,1736.00
2023-01-20T17:04:44.257Z,1765.00
2023-01-20T17:05:44.542Z,1805.00
2023-01-20T17:06:44.751Z,1926.00
2023-01-20T17:07:45.020Z,2105.00
2023-01-20T17:08:45.325Z,2308.00
2023-01-20T17:09:45.554Z,2147.00
2023-01-20T17:10:45.830Z,2084.00
2023-01-20T17:11:46.086Z,1968.00
2023-01-20T17:12:48.816Z,2052.00
2023-01-20T17:13:46.680Z,2134.00
2023-01-20T17:14:46.320Z,2313.00
2023-01-20T17:15:46.373Z,2111.00
2023-01-20T17:16:46.719Z,1968.00
2023-01-20T17:17:46.869Z,1710.00
2023-01-20T17:18:47.180Z,1754.00
2023-01-20T17:19:47.359Z,1643.00
2023-01-20T17:20:47.669Z,1800.00
2023-01-20T17:21:48.005Z,1650.00
2023-01-20T17:22:48.169Z,1455.00
2023-01-20T17:23:48.510Z,1676.00
2023-01-20T17:24:48.695Z,1768.00
2023-01-20T17:25:49.005Z,1785.00
2023-01-20T17:26:49.275Z,1769.00
2023-01-20T17:27:49.533Z,1713.00
2023-01-20T17:28:49.721Z,1727.00
2023-01-20T17:29:50.017Z,1809.00
2023-01-20T17:30:50.192Z,1767.00
2023-01-20T17:31:50.521Z,1613.00
2023-01-20T17:32:50.806Z,1347.00
2023-01-20T17:33:51.007Z,1315.00
2023-01-20T17:34:51.313Z,1623.00
2023-01-20T17:35:51.497Z,1515.00
2023-01-20T17:36:51.834Z,1613.00
2023-01-20T17:37:52.114Z,1781.00
2023-01-20T17:38:52.289Z,2032.00
2023-01-20T17:39:52.607Z,2167.00
2023-01-20T17:40:52.905Z,2123.00
2023-01-20T17:41:53.083Z,1960.00
2023-01-20T17:50:56.340Z,1567.00
2023-01-20T17:51:56.487Z,1687.00
2023-01-20T17:52:56.746Z,1743.00
2023-01-20T17:53:57.063Z,1655.00
2023-01-20T17:54:57.272Z,1825.00
2023-01-20T17:56:11.727Z,1708.00
2023-01-20T17:56:58.390Z,1712.00
2023-01-20T17:57:57.235Z,1719.00
2023-01-20T17:58:57.423Z,1618.00
2023-01-20T17:59:57.621Z,1705.00
2023-01-20T18:00:57.882Z,1790.00
2023-01-20T18:01:58.131Z,1735.00
2023-01-20T18:02:58.408Z,1738.00
2023-01-20T18:32:05.622Z,1759.00
2023-01-20T18:33:05.866Z,1958.00
2023-01-20T18:34:06.151Z,1962.00
2023-01-20T18:35:06.365Z,1946.00
2023-01-20T18:36:06.649Z,1859.00
2023-01-20T18:37:06.867Z,2013.00
2023-01-20T18:38:07.139Z,1909.00
2023-01-20T19:12:15.619Z,1859.00
2023-01-20T19:13:15.807Z,1758.00
2023-01-20T19:14:16.144Z,1601.00
2023-01-20T19:15:16.387Z,1718.00
2023-01-20T19:16:16.706Z,1863.00
2023-01-20T19:51:25.621Z,1668.00
2023-01-20T19:56:26.814Z,1496.00
2023-01-20T19:57:27.092Z,1417.00
2023-01-20T19:58:27.396Z,1383.00
2023-01-20T19:59:27.589Z,1455.00
2023-01-20T20:00:27.880Z,1727.00
2023-01-20T20:01:31.136Z,1847.00
2023-01-20T20:02:27.913Z,1731.00
2023-01-20T20:03:27.745Z,1574.00
2023-01-20T20:04:27.597Z,1509.00
2023-01-20T20:05:27.462Z,1583.00
2023-01-20T20:06:27.343Z,1585.00
2023-01-20T20:07:27.175Z,1645.00
2023-01-20T20:08:27.004Z,1684.00
2023-01-20T20:09:27.003Z,1604.00
2023-01-20T20:10:27.209Z,1521.00
2023-01-20T20:11:27.452Z,1382.00
2023-01-20T20:12:27.657Z,1366.00
2023-01-20T20:13:27.867Z,1303.00
2023-01-20T20:14:28.130Z,1518.00
2023-01-20T20:15:28.390Z,1553.00
2023-01-20T20:16:28.602Z,1597.00
2023-01-20T20:17:28.812Z,1502.00
2023-01-20T20:18:29.073Z,1533.00
2023-01-20T20:19:29.342Z,1558.00
2023-01-20T20:20:29.546Z,1559.00
2023-01-20T20:21:29.804Z,1288.00
2023-01-20T20:22:30.004Z,1252.00
2023-01-20T20:23:30.242Z,1570.00
2023-01-20T20:24:30.497Z,1487.00
2023-01-20T20:25:30.760Z,1594.00
2023-01-20T20:45:35.803Z,1455.00
2023-01-20T20:46:36.080Z,1498.00
2023-01-20T20:47:36.251Z,1610.00
2023-01-20T20:48:36.503Z,1445.00
2023-01-20T20:49:36.809Z,1509.00
2023-01-20T20:50:37.064Z,1600.00
2023-01-20T20:51:37.338Z,1489.00
2023-01-20T20:52:37.591Z,1506.00
2023-01-20T20:53:37.851Z,1620.00
2023-01-20T20:54:38.111Z,1481.00
2023-01-20T20:55:38.371Z,1416.00
2023-01-20T20:56:38.716Z,1565.00
2023-01-20T20:57:38.890Z,1604.00
2023-01-20T20:58:51.679Z,1727.00
2023-01-20T20:59:54.060Z,1668.00
2023-01-20T21:00:39.895Z,1542.00
2023-01-20T21:01:38.799Z,1586.00
2023-01-20T21:02:38.633Z,1619.00
2023-01-20T21:03:38.462Z,1598.00
2023-01-20T21:04:38.325Z,1659.00
2023-01-20T21:05:38.183Z,1753.00
2023-01-20T21:06:38.275Z,1594.00
2023-01-20T21:07:38.537Z,1603.00
2023-01-20T21:08:38.727Z,1638.00
2023-01-20T21:09:38.943Z,1655.00
2023-01-20T21:10:39.143Z,1690.00
2023-01-20T21:11:40.409Z,1868.00
2023-01-20T21:12:39.257Z,1845.00
2023-01-20T21:13:39.102Z,1757.00
2023-01-20T21:14:39.159Z,1674.00
2023-01-20T21:15:39.291Z,1611.00
2023-01-20T21:16:39.847Z,1674.00
2023-01-20T21:17:40.023Z,1437.00
2023-01-20T21:18:40.334Z,1401.00
2023-01-20T21:19:40.500Z,1453.00
2023-01-20T21:20:40.800Z,1758.00
2023-01-20T21:21:41.000Z,1821.00
2023-01-20T21:22:41.276Z,1713.00
2023-01-20T21:23:41.456Z,1719.00
2023-01-20T21:24:41.782Z,1712.00
2023-01-20T21:25:42.062Z,1817.00
2023-01-20T21:26:42.239Z,1750.00
2023-01-20T21:27:42.575Z,1495.00
2023-01-20T21:28:42.731Z,1356.00
2023-01-20T21:29:43.042Z,1452.00
2023-01-20T21:30:43.345Z,1550.00
2023-01-20T21:31:43.532Z,1467.00
2023-01-20T21:40:45.597Z,1330.00
2023-01-20T21:41:45.910Z,1211.00
2023-01-20T21:42:46.081Z,1192.00
2023-01-20T21:43:46.418Z,1124.00
2023-01-20T21:44:46.567Z,1113.00
2023-01-20T21:45:46.905Z,1253.00
2023-01-20T21:46:47.155Z,1344.00
2023-01-20T21:47:47.424Z,1321.00
2023-01-20T21:48:47.580Z,1355.00
2023-01-20T21:49:47.894Z,1395.00
2023-01-20T21:50:48.103Z,1483.00
2023-01-20T21:51:48.407Z,1581.00
2023-01-20T21:52:48.585Z,1562.00
2023-01-20T21:53:48.765Z,1464.00
2023-01-20T21:54:49.078Z,1463.00
2023-01-20T22:23:55.549Z,1582.00
2023-01-20T22:24:55.827Z,1498.00
2023-01-20T22:25:56.001Z,1410.00
2023-01-20T22:26:56.285Z,1362.00
2023-01-20T22:27:56.477Z,1491.00
2023-01-20T22:28:56.770Z,1599.00
2023-01-20T22:29:57.043Z,1521.00
2023-01-20T23:05:05.786Z,1311.00
2023-01-20T23:06:06.072Z,1367.00
2023-01-20T23:07:06.249Z,1361.00
2023-01-20T23:08:06.487Z,1280.00
2023-01-20T23:09:06.800Z,1398.00
2023-01-20T23:10:07.063Z,1362.00
2023-01-20T23:11:07.226Z,1215.00
2023-01-20T23:12:07.540Z,1255.00
2023-01-20T23:13:07.709Z,1293.00
2023-01-20T23:14:07.994Z,1293.00
2023-01-20T23:15:08.164Z,1376.00
2023-01-20T23:16:10.150Z,1338.00
2023-01-20T23:17:08.353Z,1445.00
2023-01-20T23:18:08.262Z,1392.00
2023-01-20T23:19:08.179Z,1235.00
2023-01-20T23:20:08.391Z,1319.00
2023-01-20T23:21:08.685Z,1383.00
2023-01-20T23:22:08.953Z,1352.00
2023-01-20T23:23:09.217Z,1411.00
2023-01-20T23:24:09.391Z,1394.00
2023-01-20T23:25:09.687Z,1416.00
2023-01-20T23:26:09.958Z,1331.00
2023-01-20T23:27:10.126Z,1319.00
2023-01-20T23:28:10.408Z,1385.00
2023-01-20T23:29:10.564Z,1278.00
2023-01-20T23:30:10.857Z,1278.00
2023-01-20T23:31:11.097Z,1164.00
2023-01-20T23:32:11.345Z,1024.00
2023-01-20T23:33:11.493Z,1046.00
2023-01-20T23:47:15.790Z,1266.00
2023-01-20T23:48:15.980Z,1175.00
2023-01-20T23:49:16.290Z,1160.00
2023-01-20T23:50:16.812Z,1187.00
2023-01-20T23:51:16.920Z,1156.00
2023-01-20T23:52:17.004Z,1292.00
2023-01-20T23:53:17.203Z,1327.00
2023-01-20T23:54:17.494Z,1447.00
2023-01-20T23:55:17.689Z,1344.00
2023-01-20T23:56:17.981Z,1347.00
2023-01-20T23:57:18.221Z,1262.00
2023-01-20T23:58:18.476Z,1208.00
2023-01-20T23:59:18.721Z,1189.00
